createdAt,value
2019-01-24T00:00:36.056Z,1001.29
2019-01-24T00:01:36.042Z,1001.28
2019-01-24T00:02:36.028Z,1001.29
2019-01-24T00:03:36.045Z,1001.30
2019-01-24T00:04:36.018Z,1001.26
2019-01-24T00:05:36.019Z,1001.28
2019-01-24T00:06:35.984Z,1001.33
2019-01-24T00:07:35.978Z,1001.27
2019-01-24T00:08:35.980Z,1001.27
2019-01-24T00:09:35.962Z,1001.27
2019-01-24T00:10:35.945Z,1001.32
2019-01-24T00:11:35.946Z,1001.32
2019-01-24T00:12:35.924Z,1001.33
2019-01-24T00:13:35.914Z,1001.37
2019-01-24T00:14:35.900Z,1001.39
2019-01-24T00:15:35.930Z,1001.41
2019-01-24T00:16:35.897Z,1001.42
2019-01-24T00:17:35.869Z,1001.42
2019-01-24T00:18:35.859Z,1001.43
2019-01-24T00:19:35.855Z,1001.45
2019-01-24T00:20:35.842Z,1001.48
2019-01-24T00:21:35.836Z,1001.52
2019-01-24T00:22:35.817Z,1001.53
2019-01-24T00:23:35.811Z,1001.54
2019-01-24T00:24:35.794Z,1001.58
2019-01-24T00:25:35.780Z,1001.60
2019-01-24T00:26:35.781Z,1001.60
2019-01-24T00:27:35.759Z,1001.58
2019-01-24T00:28:35.771Z,1001.64
2019-01-24T00:29:35.738Z,1001.63
2019-01-24T00:30:35.733Z,1001.64
2019-01-24T00:31:35.744Z,1001.66
2019-01-24T00:32:35.740Z,1001.68
2019-01-24T00:33:35.708Z,1001.69
2019-01-24T00:34:35.699Z,1001.69
2019-01-24T00:35:35.708Z,1001.69
2019-01-24T00:36:35.660Z,1001.67
2019-01-24T00:37:35.657Z,1001.70
2019-01-24T00:38:35.649Z,1001.70
2019-01-24T00:40:55.393Z,1001.76
2019-01-24T00:41:55.371Z,1001.70
2019-01-24T00:42:55.371Z,1001.74
2019-01-24T00:43:55.385Z,1001.73
2019-01-24T00:44:55.343Z,1001.76
2019-01-24T00:45:55.331Z,1001.73
2019-01-24T00:46:55.384Z,1001.75
2019-01-24T00:47:55.311Z,1001.73
2019-01-24T00:48:55.301Z,1001.84
2019-01-24T00:49:55.289Z,1001.81
2019-01-24T00:50:55.293Z,1001.76
2019-01-24T00:51:55.268Z,1001.84
2019-01-24T00:52:55.281Z,1001.80
2019-01-24T00:53:55.259Z,1001.82
2019-01-24T00:54:55.235Z,1001.84
2019-01-24T00:55:55.250Z,1001.82
2019-01-24T00:56:55.214Z,1001.79
2019-01-24T00:57:55.203Z,1001.78
2019-01-24T00:58:55.209Z,1001.85
2019-01-24T00:59:55.180Z,1001.83
2019-01-24T01:00:55.170Z,1001.82
2019-01-24T01:01:55.164Z,1001.85
2019-01-24T01:02:55.186Z,1001.87
2019-01-24T01:03:55.138Z,1001.85
2019-01-24T01:04:55.155Z,1001.86
2019-01-24T01:05:55.120Z,1001.86
2019-01-24T01:06:55.121Z,1001.92
2019-01-24T01:07:55.107Z,1001.93
2019-01-24T01:08:55.113Z,1001.97
2019-01-24T01:09:55.074Z,1001.96
2019-01-24T01:10:55.076Z,1001.93
2019-01-24T01:11:55.055Z,1001.97
2019-01-24T01:12:55.041Z,1002.02
2019-01-24T01:13:55.037Z,1002.04
2019-01-24T01:14:55.021Z,1002.08
2019-01-24T01:15:55.038Z,1002.03
2019-01-24T01:16:55.021Z,1002.07
2019-01-24T01:17:54.986Z,1002.10
2019-01-24T01:18:54.986Z,1002.09
2019-01-24T01:19:54.969Z,1002.10
2019-01-24T01:20:54.958Z,1002.08
2019-01-24T01:21:54.947Z,1002.10
2019-01-24T01:22:54.972Z,1002.14
2019-01-24T01:23:54.926Z,1002.16
2019-01-24T01:24:54.913Z,1002.13
2019-01-24T01:25:54.905Z,1002.10
2019-01-24T01:26:54.895Z,1002.03
2019-01-24T01:27:54.902Z,1002.12
2019-01-24T01:28:54.869Z,1002.13
2019-01-24T01:29:54.855Z,1002.14
2019-01-24T01:30:54.893Z,1002.15
2019-01-24T01:31:54.845Z,1002.19
2019-01-24T01:32:54.828Z,1002.14
2019-01-24T01:33:54.832Z,1002.19
2019-01-24T01:34:54.813Z,1002.20
2019-01-24T01:35:54.796Z,1002.18
2019-01-24T01:36:54.807Z,1002.21
2019-01-24T01:37:54.774Z,1002.20
2019-01-24T01:38:54.763Z,1002.20
2019-01-24T01:39:54.801Z,1002.21
2019-01-24T01:40:54.742Z,1002.14
2019-01-24T01:41:54.726Z,1002.14
2019-01-24T01:42:54.718Z,1002.20
2019-01-24T01:43:54.705Z,1002.14
2019-01-24T01:44:54.720Z,1002.17
2019-01-24T01:45:54.697Z,1002.17
2019-01-24T01:46:54.673Z,1002.17
2019-01-24T01:47:54.666Z,1002.20
2019-01-24T01:48:54.652Z,1002.26
2019-01-24T01:49:54.641Z,1002.24
2019-01-24T01:50:54.666Z,1002.22
2019-01-24T01:51:54.623Z,1002.20
2019-01-24T01:52:54.612Z,1002.21
2019-01-24T01:53:54.597Z,1002.21
2019-01-24T01:54:54.588Z,1002.20
2019-01-24T01:55:54.582Z,1002.20
2019-01-24T01:56:54.601Z,1002.24
2019-01-24T01:57:54.557Z,1002.22
2019-01-24T01:58:54.545Z,1002.22
2019-01-24T01:59:54.535Z,1002.23
2019-01-24T02:00:54.523Z,1002.23
2019-01-24T02:01:54.513Z,1002.28
2019-01-24T02:02:54.525Z,1002.24
2019-01-24T02:03:54.496Z,1002.27
2019-01-24T02:04:54.485Z,1002.27
2019-01-24T02:05:54.469Z,1002.24
2019-01-24T02:06:54.465Z,1002.26
2019-01-24T02:07:54.466Z,1002.26
2019-01-24T02:08:54.437Z,1002.30
2019-01-24T02:09:54.437Z,1002.27
2019-01-24T02:10:54.419Z,1002.33
2019-01-24T02:11:54.407Z,1002.31
2019-01-24T02:12:54.413Z,1002.37
2019-01-24T02:13:54.393Z,1002.39
2019-01-24T02:14:54.372Z,1002.36
2019-01-24T02:15:54.384Z,1002.41
2019-01-24T02:16:54.356Z,1002.36
2019-01-24T02:17:54.344Z,1002.38
2019-01-24T02:18:54.346Z,1002.42
2019-01-24T02:19:54.320Z,1002.42
2019-01-24T02:20:54.312Z,1002.38
2019-01-24T02:21:54.312Z,1002.42
2019-01-24T02:22:54.289Z,1002.38
2019-01-24T02:23:54.292Z,1002.42
2019-01-24T02:24:54.288Z,1002.45
2019-01-24T02:25:54.262Z,1002.45
2019-01-24T02:26:54.244Z,1002.48
2019-01-24T02:27:54.240Z,1002.45
2019-01-24T02:28:54.224Z,1002.47
2019-01-24T02:29:54.215Z,1002.47
2019-01-24T02:30:54.230Z,1002.52
2019-01-24T02:31:54.193Z,1002.48
2019-01-24T02:32:54.183Z,1002.52
2019-01-24T02:33:54.185Z,1002.47
2019-01-24T02:34:54.183Z,1002.49
2019-01-24T02:35:54.152Z,1002.51
2019-01-24T02:36:54.160Z,1002.52
2019-01-24T02:37:54.127Z,1002.54
2019-01-24T02:38:54.117Z,1002.49
2019-01-24T02:39:54.111Z,1002.50
2019-01-24T02:40:54.117Z,1002.51
2019-01-24T02:41:54.086Z,1002.52
2019-01-24T02:42:54.088Z,1002.48
2019-01-24T02:43:54.071Z,1002.48
2019-01-24T02:44:54.056Z,1002.47
2019-01-24T02:45:54.041Z,1002.43
2019-01-24T02:46:54.078Z,1002.40
2019-01-24T02:47:54.032Z,1002.41
2019-01-24T02:48:54.022Z,1002.44
2019-01-24T02:49:54.005Z,1002.46
2019-01-24T02:50:53.999Z,1002.47
2019-01-24T02:51:53.978Z,1002.47
2019-01-24T02:52:53.977Z,1002.50
2019-01-24T02:53:53.974Z,1002.48
2019-01-24T02:54:53.966Z,1002.46
2019-01-24T02:55:53.936Z,1002.50
2019-01-24T02:56:53.937Z,1002.49
2019-01-24T02:57:53.917Z,1002.47
2019-01-24T02:58:53.919Z,1002.48
2019-01-24T02:59:53.895Z,1002.51
2019-01-24T03:00:53.901Z,1002.52
2019-01-24T03:01:53.874Z,1002.53
2019-01-24T03:02:53.908Z,1002.48
2019-01-24T03:03:53.853Z,1002.49
2019-01-24T03:04:57.053Z,1002.52
2019-01-24T03:05:53.830Z,1002.50
2019-01-24T03:06:53.821Z,1002.53
2019-01-24T03:07:53.895Z,1002.55
2019-01-24T03:08:53.821Z,1002.50
2019-01-24T03:09:53.796Z,1002.52
2019-01-24T03:10:53.799Z,1002.51
2019-01-24T03:11:53.769Z,1002.51
2019-01-24T03:12:53.758Z,1002.50
2019-01-24T03:13:53.747Z,1002.44
2019-01-24T03:14:53.746Z,1002.51
2019-01-24T03:15:53.726Z,1002.51
2019-01-24T03:16:53.754Z,1002.56
2019-01-24T03:17:53.705Z,1002.56
2019-01-24T03:18:53.697Z,1002.55
2019-01-24T03:19:53.703Z,1002.57
2019-01-24T03:20:53.672Z,1002.55
2019-01-24T03:21:53.662Z,1002.58
2019-01-24T03:22:53.656Z,1002.55
2019-01-24T03:23:53.649Z,1002.53
2019-01-24T03:24:53.636Z,1002.54
2019-01-24T03:25:53.633Z,1002.53
2019-01-24T03:26:53.612Z,1002.51
2019-01-24T03:27:53.600Z,1002.54
2019-01-24T03:28:53.586Z,1002.62
2019-01-24T03:29:53.603Z,1002.57
2019-01-24T03:30:53.572Z,1002.59
2019-01-24T03:31:53.566Z,1002.58
2019-01-24T03:32:53.544Z,1002.58
2019-01-24T03:33:53.549Z,1002.63
2019-01-24T03:34:53.522Z,1002.62
2019-01-24T03:35:53.512Z,1002.57
2019-01-24T03:36:53.522Z,1002.56
2019-01-24T03:37:53.494Z,1002.59
2019-01-24T03:38:53.479Z,1002.61
2019-01-24T03:39:53.481Z,1002.62
2019-01-24T03:40:53.480Z,1002.70
2019-01-24T03:41:53.449Z,1002.61
2019-01-24T03:42:53.462Z,1002.64
2019-01-24T03:43:53.431Z,1002.68
2019-01-24T03:44:53.421Z,1002.68
2019-01-24T03:45:53.414Z,1002.69
2019-01-24T03:46:53.412Z,1002.72
2019-01-24T03:47:53.387Z,1002.73
2019-01-24T03:48:53.382Z,1002.72
2019-01-24T03:49:53.366Z,1002.75
2019-01-24T03:50:53.353Z,1002.76
2019-01-24T03:51:53.344Z,1002.72
2019-01-24T03:52:53.348Z,1002.74
2019-01-24T03:53:53.321Z,1002.76
2019-01-24T03:54:53.360Z,1002.74
2019-01-24T03:55:53.300Z,1002.74
2019-01-24T03:56:53.291Z,1002.69
2019-01-24T03:57:53.280Z,1002.74
2019-01-24T03:58:53.289Z,1002.73
2019-01-24T03:59:53.257Z,1002.74
2019-01-24T04:00:53.267Z,1002.73
2019-01-24T04:01:53.264Z,1002.79
2019-01-24T04:02:53.226Z,1002.77
2019-01-24T04:03:53.221Z,1002.74
2019-01-24T04:04:53.206Z,1002.75
2019-01-24T04:05:53.194Z,1002.78
2019-01-24T04:06:53.231Z,1002.76
2019-01-24T04:07:53.187Z,1002.75
2019-01-24T04:08:53.163Z,1002.80
2019-01-24T04:09:53.152Z,1002.77
2019-01-24T04:10:53.163Z,1002.77
2019-01-24T04:11:53.134Z,1002.73
2019-01-24T04:12:53.147Z,1002.78
2019-01-24T04:13:53.113Z,1002.75
2019-01-24T04:14:53.098Z,1002.78
2019-01-24T04:15:53.089Z,1002.79
2019-01-24T04:16:53.093Z,1002.81
2019-01-24T04:17:53.069Z,1002.77
2019-01-24T04:18:53.074Z,1002.78
2019-01-24T04:19:53.045Z,1002.76
2019-01-24T04:20:53.040Z,1002.80
2019-01-24T04:21:53.035Z,1002.80
2019-01-24T04:22:53.037Z,1002.78
2019-01-24T04:23:53.005Z,1002.80
2019-01-24T04:24:53.003Z,1002.81
2019-01-24T04:25:52.985Z,1002.78
2019-01-24T04:26:52.974Z,1002.78
2019-01-24T04:27:52.961Z,1002.78
2019-01-24T04:28:52.967Z,1002.78
2019-01-24T04:29:52.946Z,1002.78
2019-01-24T04:30:52.942Z,1002.77
2019-01-24T04:31:52.922Z,1002.83
2019-01-24T04:32:52.944Z,1002.82
2019-01-24T04:33:52.898Z,1002.79
2019-01-24T04:34:52.899Z,1002.81
2019-01-24T04:35:52.874Z,1002.86
2019-01-24T04:36:52.882Z,1002.89
2019-01-24T04:37:52.864Z,1002.91
2019-01-24T04:38:52.849Z,1002.86
2019-01-24T04:39:52.837Z,1002.91
2019-01-24T04:40:52.836Z,1002.95
2019-01-24T04:41:52.812Z,1002.90
2019-01-24T04:42:52.857Z,1002.98
2019-01-24T04:43:52.790Z,1002.97
2019-01-24T04:44:52.784Z,1003.00
2019-01-24T04:45:52.778Z,1003.01
2019-01-24T04:46:52.765Z,1002.99
2019-01-24T04:47:52.749Z,1002.98
2019-01-24T04:48:52.754Z,1002.99
2019-01-24T04:49:52.730Z,1002.95
2019-01-24T04:50:52.716Z,1002.95
2019-01-24T04:51:52.706Z,1002.97
2019-01-24T04:52:52.701Z,1002.97
2019-01-24T04:53:52.687Z,1002.99
2019-01-24T04:54:52.707Z,1003.02
2019-01-24T04:55:52.664Z,1003.01
2019-01-24T04:56:52.656Z,1003.00
2019-01-24T04:57:52.641Z,1003.07
2019-01-24T04:58:52.632Z,1003.05
2019-01-24T04:59:52.622Z,1003.11
2019-01-24T05:00:52.660Z,1003.11
2019-01-24T05:01:52.599Z,1003.08
2019-01-24T05:02:52.588Z,1003.12
2019-01-24T05:03:52.577Z,1003.12
2019-01-24T05:04:52.568Z,1003.11
2019-01-24T05:05:52.569Z,1003.17
2019-01-24T05:06:52.556Z,1003.18
2019-01-24T05:07:52.538Z,1003.20
2019-01-24T05:08:52.523Z,1003.15
2019-01-24T05:09:52.515Z,1003.15
2019-01-24T05:10:52.526Z,1003.21
2019-01-24T05:11:52.493Z,1003.15
2019-01-24T05:12:52.495Z,1003.16
2019-01-24T05:13:52.488Z,1003.15
2019-01-24T05:14:52.462Z,1003.19
2019-01-24T05:15:52.453Z,1003.20
2019-01-24T05:16:52.458Z,1003.17
2019-01-24T05:17:52.437Z,1003.15
2019-01-24T05:18:52.424Z,1003.20
2019-01-24T05:19:52.414Z,1003.20
2019-01-24T05:20:52.423Z,1003.22
2019-01-24T05:21:52.389Z,1003.22
2019-01-24T05:22:52.396Z,1003.22
2019-01-24T05:23:52.367Z,1003.26
2019-01-24T05:24:52.356Z,1003.25
2019-01-24T05:25:52.345Z,1003.26
2019-01-24T05:26:52.365Z,1003.28
2019-01-24T05:27:52.381Z,1003.30
2019-01-24T05:28:52.313Z,1003.28
2019-01-24T05:29:52.305Z,1003.34
2019-01-24T05:30:52.297Z,1003.35
2019-01-24T05:31:52.282Z,1003.34
2019-01-24T05:32:52.271Z,1003.37
2019-01-24T05:33:52.277Z,1003.37
2019-01-24T05:34:52.253Z,1003.40
2019-01-24T05:35:52.245Z,1003.43
2019-01-24T05:36:52.247Z,1003.38
2019-01-24T05:37:52.226Z,1003.38
2019-01-24T05:38:52.214Z,1003.41
2019-01-24T05:39:52.235Z,1003.38
2019-01-24T05:40:52.207Z,1003.41
2019-01-24T05:41:52.208Z,1003.41
2019-01-24T05:42:52.186Z,1003.42
2019-01-24T05:43:53.583Z,1003.45
2019-01-24T05:44:52.153Z,1003.41
2019-01-24T05:45:52.155Z,1003.49
2019-01-24T05:46:52.142Z,1003.51
2019-01-24T05:47:52.133Z,1003.51
2019-01-24T05:48:52.124Z,1003.54
2019-01-24T05:49:52.150Z,1003.53
2019-01-24T05:50:52.098Z,1003.55
2019-01-24T05:51:52.103Z,1003.54
2019-01-24T05:52:52.061Z,1003.49
2019-01-24T05:53:52.085Z,1003.54
2019-01-24T05:54:52.041Z,1003.54
2019-01-24T05:55:52.030Z,1003.58
2019-01-24T05:56:52.034Z,1003.56
2019-01-24T05:57:52.042Z,1003.55
2019-01-24T05:58:52.001Z,1003.56
2019-01-24T05:59:51.987Z,1003.55
2019-01-24T06:00:51.986Z,1003.54
2019-01-24T06:01:52.000Z,1003.55
2019-01-24T06:02:51.953Z,1003.60
2019-01-24T06:03:51.944Z,1003.56
2019-01-24T06:04:51.935Z,1003.57
2019-01-24T06:05:51.933Z,1003.56
2019-01-24T06:06:51.917Z,1003.50
2019-01-24T06:07:51.922Z,1003.51
2019-01-24T06:08:51.907Z,1003.53
2019-01-24T06:09:51.882Z,1003.52
2019-01-24T06:10:51.870Z,1003.48
2019-01-24T06:11:51.862Z,1003.54
2019-01-24T06:12:51.851Z,1003.56
2019-01-24T06:13:51.864Z,1003.55
2019-01-24T06:14:51.849Z,1003.56
2019-01-24T06:15:51.816Z,1003.64
2019-01-24T06:16:51.806Z,1003.59
2019-01-24T06:17:51.808Z,1003.61
2019-01-24T06:18:51.786Z,1003.63
2019-01-24T06:19:51.790Z,1003.66
2019-01-24T06:20:51.767Z,1003.67
2019-01-24T06:21:51.754Z,1003.70
2019-01-24T06:22:51.741Z,1003.73
2019-01-24T06:23:51.750Z,1003.72
2019-01-24T06:24:51.722Z,1003.76
2019-01-24T06:25:51.712Z,1003.70
2019-01-24T06:26:51.726Z,1003.74
2019-01-24T06:27:51.721Z,1003.73
2019-01-24T06:28:51.713Z,1003.74
2019-01-24T06:29:51.673Z,1003.75
2019-01-24T06:30:51.657Z,1003.69
2019-01-24T06:31:51.645Z,1003.71
2019-01-24T06:32:51.633Z,1003.72
2019-01-24T06:33:51.645Z,1003.70
2019-01-24T06:34:51.619Z,1003.71
2019-01-24T06:35:51.609Z,1003.73
2019-01-24T06:36:51.592Z,1003.75
2019-01-24T06:37:51.621Z,1003.75
2019-01-24T06:38:51.584Z,1003.77
2019-01-24T06:39:51.601Z,1003.81
2019-01-24T06:40:59.136Z,1003.85
2019-01-24T06:41:51.543Z,1003.81
2019-01-24T06:42:51.576Z,1003.86
2019-01-24T06:43:51.518Z,1003.82
2019-01-24T06:44:51.511Z,1003.80
2019-01-24T06:45:51.520Z,1003.85
2019-01-24T06:46:51.497Z,1003.85
2019-01-24T06:47:51.487Z,1003.85
2019-01-24T06:48:51.486Z,1003.86
2019-01-24T06:49:51.456Z,1003.86
2019-01-24T06:50:51.471Z,1003.91
2019-01-24T06:51:51.456Z,1003.93
2019-01-24T06:52:51.440Z,1003.88
2019-01-24T06:53:51.412Z,1003.94
2019-01-24T06:54:51.404Z,1003.96
2019-01-24T06:55:51.396Z,1003.94
2019-01-24T06:56:51.408Z,1003.94
2019-01-24T06:57:51.368Z,1003.95
2019-01-24T06:58:51.360Z,1003.96
2019-01-24T06:59:51.357Z,1003.94
2019-01-24T07:00:51.353Z,1003.94
2019-01-24T07:01:51.326Z,1003.99
2019-01-24T07:02:51.359Z,1003.97
2019-01-24T07:03:51.323Z,1003.98
2019-01-24T07:04:51.293Z,1004.01
2019-01-24T07:05:55.350Z,1004.03
2019-01-24T07:06:51.273Z,1004.03
2019-01-24T07:07:51.278Z,1004.05
2019-01-24T07:08:51.284Z,1004.10
2019-01-24T07:09:51.249Z,1004.10
2019-01-24T07:10:51.243Z,1004.12
2019-01-24T07:11:51.233Z,1004.15
2019-01-24T07:12:51.210Z,1004.17
2019-01-24T07:13:51.196Z,1004.14
2019-01-24T07:14:51.203Z,1004.22
2019-01-24T07:15:51.203Z,1004.18
2019-01-24T07:16:51.167Z,1004.20
2019-01-24T07:17:51.206Z,1004.23
2019-01-24T07:18:51.144Z,1004.26
2019-01-24T07:19:51.162Z,1004.27
2019-01-24T07:20:51.124Z,1004.24
2019-01-24T07:21:51.156Z,1004.29
2019-01-24T07:22:51.154Z,1004.28
2019-01-24T07:23:51.108Z,1004.29
2019-01-24T07:24:51.082Z,1004.35
2019-01-24T07:25:51.080Z,1004.35
2019-01-24T07:26:51.085Z,1004.42
2019-01-24T07:27:51.094Z,1004.41
2019-01-24T07:28:51.037Z,1004.49
2019-01-24T07:29:51.034Z,1004.47
2019-01-24T07:30:51.021Z,1004.53
2019-01-24T07:31:51.035Z,1004.52
2019-01-24T07:32:51.006Z,1004.51
2019-01-24T07:33:51.008Z,1004.59
2019-01-24T07:34:51.027Z,1004.58
2019-01-24T07:35:50.962Z,1004.62
2019-01-24T07:36:50.961Z,1004.63
2019-01-24T07:37:50.953Z,1004.67
2019-01-24T07:38:50.957Z,1004.66
2019-01-24T07:39:50.992Z,1004.74
2019-01-24T07:40:50.911Z,1004.74
2019-01-24T07:41:50.897Z,1004.78
2019-01-24T07:42:50.914Z,1004.81
2019-01-24T07:43:50.884Z,1004.79
2019-01-24T07:44:50.866Z,1004.81
2019-01-24T07:45:50.901Z,1004.83
2019-01-24T07:46:50.846Z,1004.84
2019-01-24T07:47:50.859Z,1004.79
2019-01-24T07:48:50.827Z,1004.85
2019-01-24T07:49:50.813Z,1004.86
2019-01-24T07:50:50.805Z,1004.95
2019-01-24T07:51:50.815Z,1004.94
2019-01-24T07:52:50.782Z,1004.93
2019-01-24T07:53:50.796Z,1004.98
2019-01-24T07:54:50.767Z,1004.93
2019-01-24T07:55:50.751Z,1004.94
2019-01-24T07:56:50.739Z,1004.88
2019-01-24T07:57:50.743Z,1004.94
2019-01-24T07:58:50.782Z,1004.87
2019-01-24T07:59:50.754Z,1004.91
2019-01-24T08:00:50.697Z,1004.96
2019-01-24T08:01:50.696Z,1004.95
2019-01-24T08:02:50.686Z,1005.00
2019-01-24T08:03:50.663Z,1004.95
2019-01-24T08:04:50.657Z,1004.94
2019-01-24T08:05:50.724Z,1005.04
2019-01-24T08:06:50.644Z,1005.02
2019-01-24T08:07:50.651Z,1005.04
2019-01-24T08:08:50.643Z,1005.04
2019-01-24T08:09:50.633Z,1005.09
2019-01-24T08:10:50.602Z,1005.05
2019-01-24T08:11:50.638Z,1005.07
2019-01-24T08:12:50.569Z,1005.09
2019-01-24T08:13:50.575Z,1005.09
2019-01-24T08:14:50.582Z,1005.07
2019-01-24T08:15:50.567Z,1005.09
2019-01-24T08:16:50.527Z,1005.10
2019-01-24T08:17:50.516Z,1005.11
2019-01-24T08:18:50.505Z,1005.16
2019-01-24T08:19:50.527Z,1005.17
2019-01-24T08:20:50.511Z,1005.22
2019-01-24T08:21:50.513Z,1005.17
2019-01-24T08:22:50.462Z,1005.20
2019-01-24T08:23:50.452Z,1005.26
2019-01-24T08:24:50.467Z,1005.24
2019-01-24T08:25:50.450Z,1005.25
2019-01-24T08:26:50.419Z,1005.29
2019-01-24T08:27:50.430Z,1005.28
2019-01-24T08:28:50.413Z,1005.29
2019-01-24T08:29:50.390Z,1005.37
2019-01-24T08:30:50.383Z,1005.33
2019-01-24T08:31:50.383Z,1005.36
2019-01-24T08:32:50.359Z,1005.37
2019-01-24T08:33:50.347Z,1005.34
2019-01-24T08:34:50.356Z,1005.32
2019-01-24T08:35:50.322Z,1005.40
2019-01-24T08:36:50.335Z,1005.33
2019-01-24T08:37:50.301Z,1005.32
2019-01-24T08:38:50.289Z,1005.36
2019-01-24T08:39:50.298Z,1005.37
2019-01-24T08:40:50.280Z,1005.38
2019-01-24T08:41:50.270Z,1005.38
2019-01-24T08:42:50.309Z,1005.38
2019-01-24T08:43:50.239Z,1005.35
2019-01-24T08:44:50.228Z,1005.35
2019-01-24T08:45:50.215Z,1005.38
2019-01-24T08:46:50.204Z,1005.42
2019-01-24T08:47:50.197Z,1005.37
2019-01-24T08:48:50.210Z,1005.39
2019-01-24T08:49:50.186Z,1005.39
2019-01-24T08:50:50.167Z,1005.38
2019-01-24T08:51:50.154Z,1005.41
2019-01-24T08:52:50.167Z,1005.40
2019-01-24T08:53:50.143Z,1005.43
2019-01-24T08:54:50.139Z,1005.40
2019-01-24T08:55:50.144Z,1005.34
2019-01-24T08:56:50.101Z,1005.38
2019-01-24T08:57:50.088Z,1005.34
2019-01-24T08:58:50.095Z,1005.40
2019-01-24T08:59:50.066Z,1005.39
2019-01-24T09:00:50.091Z,1005.34
2019-01-24T09:01:50.052Z,1005.33
2019-01-24T09:02:50.063Z,1005.31
2019-01-24T09:03:50.025Z,1005.30
2019-01-24T09:04:50.020Z,1005.34
2019-01-24T09:05:50.017Z,1005.32
2019-01-24T09:06:50.009Z,1005.31
2019-01-24T09:07:49.984Z,1005.32
2019-01-24T09:08:49.998Z,1005.34
2019-01-24T09:09:49.960Z,1005.37
2019-01-24T09:10:49.952Z,1005.39
2019-01-24T09:11:49.979Z,1005.40
2019-01-24T09:12:49.931Z,1005.41
2019-01-24T09:13:49.917Z,1005.37
2019-01-24T09:14:49.918Z,1005.34
2019-01-24T09:15:49.899Z,1005.37
2019-01-24T09:16:49.893Z,1005.40
2019-01-24T09:17:49.888Z,1005.40
2019-01-24T09:18:49.862Z,1005.39
2019-01-24T09:19:49.855Z,1005.39
2019-01-24T09:20:49.851Z,1005.39
2019-01-24T09:21:49.854Z,1005.35
2019-01-24T09:22:55.119Z,1005.39
2019-01-24T09:23:50.825Z,1005.37
2019-01-24T09:24:49.802Z,1005.35
2019-01-24T09:25:49.788Z,1005.38
2019-01-24T09:26:49.778Z,1005.42
2019-01-24T09:27:49.816Z,1005.40
2019-01-24T09:28:49.777Z,1005.41
2019-01-24T09:29:49.772Z,1005.38
2019-01-24T09:30:49.756Z,1005.36
2019-01-24T09:31:49.728Z,1005.38
2019-01-24T09:32:49.716Z,1005.40
2019-01-24T09:33:49.710Z,1005.40
2019-01-24T09:34:49.706Z,1005.39
2019-01-24T09:35:49.732Z,1005.38
2019-01-24T09:36:49.679Z,1005.39
2019-01-24T09:37:49.680Z,1005.36
2019-01-24T09:38:49.666Z,1005.43
2019-01-24T09:39:49.666Z,1005.38
2019-01-24T09:40:49.627Z,1005.41
2019-01-24T09:41:49.628Z,1005.41
2019-01-24T09:42:49.607Z,1005.42
2019-01-24T09:43:49.597Z,1005.43
2019-01-24T09:44:49.587Z,1005.42
2019-01-24T09:45:49.597Z,1005.47
2019-01-24T09:46:49.599Z,1005.49
2019-01-24T09:47:49.557Z,1005.45
2019-01-24T09:48:49.542Z,1005.43
2019-01-24T09:49:49.532Z,1005.43
2019-01-24T09:50:49.522Z,1005.39
2019-01-24T09:51:49.536Z,1005.39
2019-01-24T09:52:49.521Z,1005.41
2019-01-24T09:53:49.509Z,1005.41
2019-01-24T09:54:49.485Z,1005.44
2019-01-24T09:55:49.482Z,1005.44
2019-01-24T09:56:49.457Z,1005.41
2019-01-24T09:57:49.486Z,1005.40
2019-01-24T09:58:49.468Z,1005.41
2019-01-24T09:59:49.426Z,1005.39
2019-01-24T10:00:49.419Z,1005.40
2019-01-24T10:01:49.406Z,1005.39
2019-01-24T10:02:49.556Z,1005.41
2019-01-24T10:03:49.407Z,1005.45
2019-01-24T10:04:49.394Z,1005.50
2019-01-24T10:05:49.360Z,1005.49
2019-01-24T10:06:50.624Z,1005.56
2019-01-24T10:07:49.339Z,1005.55
2019-01-24T10:08:49.331Z,1005.58
2019-01-24T10:09:49.329Z,1005.61
2019-01-24T10:10:49.317Z,1005.61
2019-01-24T10:11:49.296Z,1005.60
2019-01-24T10:12:49.286Z,1005.62
2019-01-24T10:13:49.280Z,1005.62
2019-01-24T10:14:49.263Z,1005.65
2019-01-24T10:15:49.280Z,1005.60
2019-01-24T10:16:49.257Z,1005.62
2019-01-24T10:17:49.234Z,1005.66
2019-01-24T10:18:49.221Z,1005.61
2019-01-24T10:19:49.239Z,1005.62
2019-01-24T10:20:49.199Z,1005.65
2019-01-24T10:21:49.206Z,1005.64
2019-01-24T10:22:49.192Z,1005.67
2019-01-24T10:23:49.170Z,1005.63
2019-01-24T10:24:49.158Z,1005.61
2019-01-24T10:25:49.169Z,1005.59
2019-01-24T10:26:49.136Z,1005.64
2019-01-24T10:27:49.171Z,1005.67
2019-01-24T10:28:49.122Z,1005.69
2019-01-24T10:29:49.104Z,1005.64
2019-01-24T10:30:49.097Z,1005.68
2019-01-24T10:31:49.084Z,1005.71
2019-01-24T10:32:49.085Z,1005.72
2019-01-24T10:33:49.098Z,1005.74
2019-01-24T10:34:49.054Z,1005.71
2019-01-24T10:35:49.042Z,1005.74
2019-01-24T10:36:49.033Z,1005.71
2019-01-24T10:37:49.052Z,1005.69
2019-01-24T10:38:49.008Z,1005.67
2019-01-24T10:39:49.023Z,1005.67
2019-01-24T10:40:49.002Z,1005.67
2019-01-24T10:41:48.980Z,1005.66
2019-01-24T10:42:48.996Z,1005.67
2019-01-24T10:43:48.955Z,1005.65
2019-01-24T10:44:48.943Z,1005.64
2019-01-24T10:45:48.951Z,1005.63
2019-01-24T10:46:48.938Z,1005.63
2019-01-24T10:47:48.914Z,1005.59
2019-01-24T10:48:48.903Z,1005.61
2019-01-24T10:49:48.892Z,1005.62
2019-01-24T10:50:48.900Z,1005.68
2019-01-24T10:51:48.938Z,1005.70
2019-01-24T10:52:48.862Z,1005.65
2019-01-24T10:53:48.847Z,1005.61
2019-01-24T10:54:48.838Z,1005.60
2019-01-24T10:55:48.826Z,1005.52
2019-01-24T10:56:48.827Z,1005.55
2019-01-24T10:57:48.814Z,1005.54
2019-01-24T10:58:48.810Z,1005.60
2019-01-24T10:59:48.783Z,1005.60
2019-01-24T11:00:48.788Z,1005.63
2019-01-24T11:01:48.763Z,1005.66
2019-01-24T11:02:57.380Z,1005.64
2019-01-24T11:03:56.304Z,1005.66
2019-01-24T11:04:48.735Z,1005.69
2019-01-24T11:05:48.727Z,1005.66
2019-01-24T11:06:56.307Z,1005.65
2019-01-24T11:07:56.290Z,1005.67
2019-01-24T11:08:57.483Z,1005.62
2019-01-24T11:09:48.702Z,1005.66
2019-01-24T11:10:48.695Z,1005.67
2019-01-24T11:11:48.666Z,1005.64
2019-01-24T11:12:48.657Z,1005.66
2019-01-24T11:13:48.657Z,1005.66
2019-01-24T11:14:48.678Z,1005.66
2019-01-24T11:15:48.659Z,1005.63
2019-01-24T11:16:48.627Z,1005.64
2019-01-24T11:17:48.657Z,1005.66
2019-01-24T11:18:48.606Z,1005.60
2019-01-24T11:19:48.573Z,1005.66
2019-01-24T11:20:48.627Z,1005.66
2019-01-24T11:21:48.548Z,1005.63
2019-01-24T11:22:48.541Z,1005.69
2019-01-24T11:23:48.536Z,1005.66
2019-01-24T11:24:48.542Z,1005.69
2019-01-24T11:25:48.507Z,1005.70
2019-01-24T11:26:48.520Z,1005.73
2019-01-24T11:27:48.485Z,1005.72
2019-01-24T11:28:48.475Z,1005.75
2019-01-24T11:29:48.472Z,1005.69
2019-01-24T11:30:48.462Z,1005.72
2019-01-24T11:31:48.462Z,1005.70
2019-01-24T11:32:48.446Z,1005.66
2019-01-24T11:33:48.463Z,1005.72
2019-01-24T11:34:48.425Z,1005.73
2019-01-24T11:35:48.445Z,1005.70
2019-01-24T11:36:48.448Z,1005.71
2019-01-24T11:37:48.412Z,1005.73
2019-01-24T11:38:48.395Z,1005.74
2019-01-24T11:39:48.378Z,1005.70
2019-01-24T11:40:48.361Z,1005.71
2019-01-24T11:41:48.338Z,1005.66
2019-01-24T11:42:48.378Z,1005.71
2019-01-24T11:43:48.370Z,1005.68
2019-01-24T11:44:48.360Z,1005.65
2019-01-24T11:45:48.327Z,1005.64
2019-01-24T11:46:48.292Z,1005.66
2019-01-24T11:47:48.278Z,1005.73
2019-01-24T11:48:48.269Z,1005.73
2019-01-24T11:49:48.269Z,1005.76
2019-01-24T11:50:48.263Z,1005.71
2019-01-24T11:51:48.256Z,1005.79
2019-01-24T11:52:48.221Z,1005.73
2019-01-24T11:53:53.064Z,1005.72
2019-01-24T11:54:49.204Z,1005.74
2019-01-24T11:55:48.242Z,1005.74
2019-01-24T11:56:48.201Z,1005.70
2019-01-24T11:57:48.174Z,1005.72
2019-01-24T11:58:48.166Z,1005.70
2019-01-24T11:59:48.167Z,1005.70
2019-01-24T12:00:48.135Z,1005.71
2019-01-24T12:01:48.142Z,1005.66
2019-01-24T12:02:48.119Z,1005.65
2019-01-24T12:03:48.115Z,1005.69
2019-01-24T12:04:48.095Z,1005.64
2019-01-24T12:05:48.097Z,1005.62
2019-01-24T12:06:48.088Z,1005.63